sensor_id;sensor_type;location;lat;lon;timestamp;P1;durP1;ratioP1;P2;durP2;ratioP2
57057;SDS011;55017;52.848;6.748;2022-12-18T00:01:37;194.48;;;179.25;;
57057;SDS011;55017;52.848;6.748;2022-12-18T00:04:04;194.05;;;179.90;;
57057;SDS011;55017;52.848;6.748;2022-12-18T00:06:31;193.88;;;179.05;;
57057;SDS011;55017;52.848;6.748;2022-12-18T00:09:01;191.27;;;177.30;;
57057;SDS011;55017;52.848;6.748;2022-12-18T00:11:29;192.97;;;177.50;;
57057;SDS011;55017;52.848;6.748;2022-12-18T00:13:56;194.38;;;178.15;;
57057;SDS011;55017;52.848;6.748;2022-12-18T00:16:23;195.02;;;179.23;;
57057;SDS011;55017;52.848;6.748;2022-12-18T00:18:49;195.05;;;179.88;;
57057;SDS011;55017;52.848;6.748;2022-12-18T00:21:15;195.43;;;180.13;;
57057;SDS011;55017;52.848;6.748;2022-12-18T00:23:42;192.18;;;177.85;;
57057;SDS011;55017;52.848;6.748;2022-12-18T00:26:12;194.10;;;179.63;;
57057;SDS011;55017;52.848;6.748;2022-12-18T00:28:39;194.43;;;180.35;;
57057;SDS011;55017;52.848;6.748;2022-12-18T00:31:24;188.23;;;174.30;;
57057;SDS011;55017;52.848;6.748;2022-12-18T00:33:51;192.43;;;178.60;;
57057;SDS011;55017;52.848;6.748;2022-12-18T00:36:18;195.05;;;180.88;;
57057;SDS011;55017;52.848;6.748;2022-12-18T00:38:44;191.98;;;178.10;;
57057;SDS011;55017;52.848;6.748;2022-12-18T00:41:11;195.60;;;181.07;;
57057;SDS011;55017;52.848;6.748;2022-12-18T00:43:38;194.73;;;180.20;;
57057;SDS011;55017;52.848;6.748;2022-12-18T00:46:04;193.82;;;179.40;;
57057;SDS011;55017;52.848;6.748;2022-12-18T00:48:30;195.30;;;180.50;;
57057;SDS011;55017;52.848;6.748;2022-12-18T00:50:56;195.25;;;180.93;;
57057;SDS011;55017;52.848;6.748;2022-12-18T00:53:22;194.00;;;179.15;;
57057;SDS011;55017;52.848;6.748;2022-12-18T00:55:48;194.65;;;180.77;;
57057;SDS011;55017;52.848;6.748;2022-12-18T00:58:15;190.88;;;176.40;;
57057;SDS011;55017;52.848;6.748;2022-12-18T01:00:41;189.20;;;174.77;;
57057;SDS011;55017;52.848;6.748;2022-12-18T01:03:07;194.50;;;180.30;;
57057;SDS011;55017;52.848;6.748;2022-12-18T01:05:38;191.02;;;177.02;;
57057;SDS011;55017;52.848;6.748;2022-12-18T01:08:05;194.82;;;180.38;;
57057;SDS011;55017;52.848;6.748;2022-12-18T01:10:31;197.70;;;182.55;;
57057;SDS011;55017;52.848;6.748;2022-12-18T01:12:57;195.98;;;181.18;;
57057;SDS011;55017;52.848;6.748;2022-12-18T01:15:23;195.15;;;180.18;;
57057;SDS011;55017;52.848;6.748;2022-12-18T01:17:51;196.15;;;181.48;;
57057;SDS011;55017;52.848;6.748;2022-12-18T01:20:17;197.82;;;183.07;;
57057;SDS011;55017;52.848;6.748;2022-12-18T01:22:43;195.63;;;180.77;;
57057;SDS011;55017;52.848;6.748;2022-12-18T01:25:09;197.05;;;181.90;;
57057;SDS011;55017;52.848;6.748;2022-12-18T01:27:35;198.77;;;183.18;;
57057;SDS011;55017;52.848;6.748;2022-12-18T01:30:01;197.18;;;182.90;;
57057;SDS011;55017;52.848;6.748;2022-12-18T01:32:29;195.57;;;180.88;;
57057;SDS011;55017;52.848;6.748;2022-12-18T01:34:55;194.65;;;180.02;;
57057;SDS011;55017;52.848;6.748;2022-12-18T01:37:21;199.82;;;184.00;;
57057;SDS011;55017;52.848;6.748;2022-12-18T01:39:47;193.35;;;178.10;;
57057;SDS011;55017;52.848;6.748;2022-12-18T01:42:14;194.70;;;180.65;;
57057;SDS011;55017;52.848;6.748;2022-12-18T01:49:58;191.18;;;177.32;;
57057;SDS011;55017;52.848;6.748;2022-12-18T01:52:26;198.23;;;182.90;;
57057;SDS011;55017;52.848;6.748;2022-12-18T01:54:53;195.60;;;182.30;;
57057;SDS011;55017;52.848;6.748;2022-12-18T01:57:20;196.43;;;182.20;;
57057;SDS011;55017;52.848;6.748;2022-12-18T01:59:47;193.73;;;178.60;;
57057;SDS011;55017;52.848;6.748;2022-12-18T02:02:15;194.95;;;180.63;;
57057;SDS011;55017;52.848;6.748;2022-12-18T02:04:41;192.05;;;177.50;;
57057;SDS011;55017;52.848;6.748;2022-12-18T02:07:20;192.45;;;178.55;;
57057;SDS011;55017;52.848;6.748;2022-12-18T02:09:50;187.82;;;173.95;;
57057;SDS011;55017;52.848;6.748;2022-12-18T02:12:19;195.10;;;181.20;;
57057;SDS011;55017;52.848;6.748;2022-12-18T02:15:00;193.75;;;178.85;;
57057;SDS011;55017;52.848;6.748;2022-12-18T02:17:29;192.70;;;179.45;;
57057;SDS011;55017;52.848;6.748;2022-12-18T02:22:49;190.00;;;177.05;;
57057;SDS011;55017;52.848;6.748;2022-12-18T02:27:43;193.30;;;179.55;;
57057;SDS011;55017;52.848;6.748;2022-12-18T02:32:40;190.80;;;177.80;;
57057;SDS011;55017;52.848;6.748;2022-12-18T02:35:11;193.77;;;179.80;;
57057;SDS011;55017;52.848;6.748;2022-12-18T02:37:38;198.00;;;183.52;;
57057;SDS011;55017;52.848;6.748;2022-12-18T02:40:05;191.90;;;178.82;;
57057;SDS011;55017;52.848;6.748;2022-12-18T02:42:31;188.77;;;176.27;;
57057;SDS011;55017;52.848;6.748;2022-12-18T02:44:58;190.73;;;177.20;;
57057;SDS011;55017;52.848;6.748;2022-12-18T02:47:24;191.85;;;178.57;;
57057;SDS011;55017;52.848;6.748;2022-12-18T02:49:58;193.55;;;180.38;;
57057;SDS011;55017;52.848;6.748;2022-12-18T02:52:33;193.68;;;180.50;;
57057;SDS011;55017;52.848;6.748;2022-12-18T03:00:21;188.35;;;175.93;;
57057;SDS011;55017;52.848;6.748;2022-12-18T03:02:51;190.90;;;178.02;;
57057;SDS011;55017;52.848;6.748;2022-12-18T03:05:21;189.90;;;177.23;;
57057;SDS011;55017;52.848;6.748;2022-12-18T03:10:14;183.98;;;172.45;;
57057;SDS011;55017;52.848;6.748;2022-12-18T03:12:43;183.02;;;171.13;;
57057;SDS011;55017;52.848;6.748;2022-12-18T03:15:18;184.85;;;172.68;;
57057;SDS011;55017;52.848;6.748;2022-12-18T03:17:59;184.75;;;172.50;;
57057;SDS011;55017;52.848;6.748;2022-12-18T03:20:29;186.73;;;174.88;;
57057;SDS011;55017;52.848;6.748;2022-12-18T03:23:04;185.13;;;173.05;;
57057;SDS011;55017;52.848;6.748;2022-12-18T03:25:32;179.98;;;169.07;;
57057;SDS011;55017;52.848;6.748;2022-12-18T03:28:00;188.25;;;175.75;;
57057;SDS011;55017;52.848;6.748;2022-12-18T03:30:28;185.38;;;173.57;;
57057;SDS011;55017;52.848;6.748;2022-12-18T03:33:08;186.10;;;174.98;;
57057;SDS011;55017;52.848;6.748;2022-12-18T03:35:39;183.30;;;171.60;;
57057;SDS011;55017;52.848;6.748;2022-12-18T03:38:06;183.52;;;171.93;;
57057;SDS011;55017;52.848;6.748;2022-12-18T03:40:40;183.10;;;172.45;;
57057;SDS011;55017;52.848;6.748;2022-12-18T03:43:10;181.88;;;170.73;;
57057;SDS011;55017;52.848;6.748;2022-12-18T03:45:42;184.10;;;172.98;;
57057;SDS011;55017;52.848;6.748;2022-12-18T03:48:27;184.40;;;173.45;;
57057;SDS011;55017;52.848;6.748;2022-12-18T03:51:01;176.50;;;165.77;;
57057;SDS011;55017;52.848;6.748;2022-12-18T03:53:38;179.05;;;168.38;;
57057;SDS011;55017;52.848;6.748;2022-12-18T03:56:06;181.55;;;170.85;;
57057;SDS011;55017;52.848;6.748;2022-12-18T03:58:34;183.85;;;172.35;;
57057;SDS011;55017;52.848;6.748;2022-12-18T04:01:01;179.25;;;168.15;;
57057;SDS011;55017;52.848;6.748;2022-12-18T04:03:28;179.75;;;169.38;;
57057;SDS011;55017;52.848;6.748;2022-12-18T04:05:55;177.77;;;167.55;;
57057;SDS011;55017;52.848;6.748;2022-12-18T04:08:22;175.25;;;165.63;;
57057;SDS011;55017;52.848;6.748;2022-12-18T04:10:48;177.88;;;167.88;;
57057;SDS011;55017;52.848;6.748;2022-12-18T04:13:21;177.68;;;167.63;;
57057;SDS011;55017;52.848;6.748;2022-12-18T04:15:47;179.10;;;168.65;;
57057;SDS011;55017;52.848;6.748;2022-12-18T04:18:13;177.85;;;168.20;;
57057;SDS011;55017;52.848;6.748;2022-12-18T04:20:39;176.52;;;166.80;;
57057;SDS011;55017;52.848;6.748;2022-12-18T04:23:05;174.40;;;164.50;;
57057;SDS011;55017;52.848;6.748;2022-12-18T04:25:31;178.82;;;168.57;;
57057;SDS011;55017;52.848;6.748;2022-12-18T04:27:57;176.75;;;167.20;;
57057;SDS011;55017;52.848;6.748;2022-12-18T04:30:23;177.32;;;167.50;;
57057;SDS011;55017;52.848;6.748;2022-12-18T04:32:49;174.15;;;164.60;;
57057;SDS011;55017;52.848;6.748;2022-12-18T04:35:15;174.10;;;164.88;;
57057;SDS011;55017;52.848;6.748;2022-12-18T04:37:41;175.25;;;166.00;;
57057;SDS011;55017;52.848;6.748;2022-12-18T04:40:07;176.52;;;166.80;;
57057;SDS011;55017;52.848;6.748;2022-12-18T04:42:33;172.05;;;162.77;;
57057;SDS011;55017;52.848;6.748;2022-12-18T04:44:59;177.35;;;167.43;;
57057;SDS011;55017;52.848;6.748;2022-12-18T04:47:25;174.07;;;164.82;;
57057;SDS011;55017;52.848;6.748;2022-12-18T04:49:51;171.20;;;161.88;;
57057;SDS011;55017;52.848;6.748;2022-12-18T04:52:17;175.73;;;166.20;;
57057;SDS011;55017;52.848;6.748;2022-12-18T04:54:43;174.27;;;164.32;;
57057;SDS011;55017;52.848;6.748;2022-12-18T04:57:09;179.25;;;169.70;;
57057;SDS011;55017;52.848;6.748;2022-12-18T04:59:35;174.38;;;164.52;;
57057;SDS011;55017;52.848;6.748;2022-12-18T05:02:01;175.55;;;166.10;;
57057;SDS011;55017;52.848;6.748;2022-12-18T05:04:27;175.45;;;165.90;;
57057;SDS011;55017;52.848;6.748;2022-12-18T05:06:53;173.88;;;164.55;;
57057;SDS011;55017;52.848;6.748;2022-12-18T05:09:19;173.80;;;164.65;;
57057;SDS011;55017;52.848;6.748;2022-12-18T05:11:45;171.85;;;162.82;;
57057;SDS011;55017;52.848;6.748;2022-12-18T05:14:12;174.63;;;165.48;;
57057;SDS011;55017;52.848;6.748;2022-12-18T05:16:38;171.80;;;162.68;;
57057;SDS011;55017;52.848;6.748;2022-12-18T05:19:04;172.88;;;163.43;;
57057;SDS011;55017;52.848;6.748;2022-12-18T05:21:30;171.23;;;162.52;;
57057;SDS011;55017;52.848;6.748;2022-12-18T05:23:56;171.68;;;162.82;;
57057;SDS011;55017;52.848;6.748;2022-12-18T05:26:22;172.85;;;163.98;;
57057;SDS011;55017;52.848;6.748;2022-12-18T05:28:48;175.70;;;166.65;;
57057;SDS011;55017;52.848;6.748;2022-12-18T05:31:14;173.00;;;164.27;;
57057;SDS011;55017;52.848;6.748;2022-12-18T05:33:40;174.85;;;166.13;;
57057;SDS011;55017;52.848;6.748;2022-12-18T05:36:07;170.27;;;161.70;;
57057;SDS011;55017;52.848;6.748;2022-12-18T05:38:34;171.43;;;162.73;;
57057;SDS011;55017;52.848;6.748;2022-12-18T05:41:00;170.02;;;161.38;;
57057;SDS011;55017;52.848;6.748;2022-12-18T05:43:26;173.77;;;165.25;;
57057;SDS011;55017;52.848;6.748;2022-12-18T05:45:53;171.10;;;162.38;;
57057;SDS011;55017;52.848;6.748;2022-12-18T05:48:20;169.50;;;160.63;;
57057;SDS011;55017;52.848;6.748;2022-12-18T05:50:47;172.80;;;164.02;;
57057;SDS011;55017;52.848;6.748;2022-12-18T05:53:14;172.13;;;163.63;;
57057;SDS011;55017;52.848;6.748;2022-12-18T05:55:41;171.57;;;162.75;;
57057;SDS011;55017;52.848;6.748;2022-12-18T05:58:08;169.48;;;161.15;;
57057;SDS011;55017;52.848;6.748;2022-12-18T06:00:35;172.40;;;163.63;;
57057;SDS011;55017;52.848;6.748;2022-12-18T06:03:04;172.80;;;164.07;;
57057;SDS011;55017;52.848;6.748;2022-12-18T06:05:34;173.38;;;164.18;;
57057;SDS011;55017;52.848;6.748;2022-12-18T06:08:00;176.98;;;167.75;;
57057;SDS011;55017;52.848;6.748;2022-12-18T06:10:26;169.93;;;160.75;;
57057;SDS011;55017;52.848;6.748;2022-12-18T06:12:52;171.90;;;163.48;;
57057;SDS011;55017;52.848;6.748;2022-12-18T06:15:18;171.10;;;162.48;;
57057;SDS011;55017;52.848;6.748;2022-12-18T06:17:44;172.73;;;164.25;;
57057;SDS011;55017;52.848;6.748;2022-12-18T06:20:10;171.93;;;162.98;;
57057;SDS011;55017;52.848;6.748;2022-12-18T06:22:36;171.15;;;162.25;;
57057;SDS011;55017;52.848;6.748;2022-12-18T06:25:02;173.85;;;165.10;;
57057;SDS011;55017;52.848;6.748;2022-12-18T06:27:28;171.50;;;163.10;;
57057;SDS011;55017;52.848;6.748;2022-12-18T06:29:54;169.50;;;161.27;;
57057;SDS011;55017;52.848;6.748;2022-12-18T06:32:20;167.82;;;159.82;;
57057;SDS011;55017;52.848;6.748;2022-12-18T06:34:46;171.02;;;162.63;;
57057;SDS011;55017;52.848;6.748;2022-12-18T06:37:12;171.57;;;163.25;;
57057;SDS011;55017;52.848;6.748;2022-12-18T06:39:38;169.98;;;161.57;;
57057;SDS011;55017;52.848;6.748;2022-12-18T06:42:04;171.95;;;163.40;;
57057;SDS011;55017;52.848;6.748;2022-12-18T06:44:30;170.73;;;162.00;;
57057;SDS011;55017;52.848;6.748;2022-12-18T06:46:56;171.90;;;163.40;;
57057;SDS011;55017;52.848;6.748;2022-12-18T06:49:22;169.93;;;161.05;;
57057;SDS011;55017;52.848;6.748;2022-12-18T06:51:49;169.90;;;161.50;;
57057;SDS011;55017;52.848;6.748;2022-12-18T06:54:15;167.35;;;159.25;;
57057;SDS011;55017;52.848;6.748;2022-12-18T06:56:41;168.45;;;160.27;;
57057;SDS011;55017;52.848;6.748;2022-12-18T06:59:07;172.77;;;163.90;;
57057;SDS011;55017;52.848;6.748;2022-12-18T07:01:33;170.45;;;162.35;;
57057;SDS011;55017;52.848;6.748;2022-12-18T07:03:59;171.18;;;162.75;;
57057;SDS011;55017;52.848;6.748;2022-12-18T07:06:25;171.60;;;163.27;;
57057;SDS011;55017;52.848;6.748;2022-12-18T07:08:52;167.30;;;158.98;;
57057;SDS011;55017;52.848;6.748;2022-12-18T07:11:19;169.38;;;161.10;;
57057;SDS011;55017;52.848;6.748;2022-12-18T07:13:45;172.48;;;163.65;;
57057;SDS011;55017;52.848;6.748;2022-12-18T07:16:15;168.90;;;160.90;;
57057;SDS011;55017;52.848;6.748;2022-12-18T07:18:41;167.93;;;160.02;;
57057;SDS011;55017;52.848;6.748;2022-12-18T07:21:08;169.55;;;161.13;;
57057;SDS011;55017;52.848;6.748;2022-12-18T07:23:35;169.95;;;161.40;;
57057;SDS011;55017;52.848;6.748;2022-12-18T07:26:02;170.02;;;161.93;;
57057;SDS011;55017;52.848;6.748;2022-12-18T07:28:28;165.93;;;158.32;;
57057;SDS011;55017;52.848;6.748;2022-12-18T07:30:54;168.75;;;160.23;;
57057;SDS011;55017;52.848;6.748;2022-12-18T07:33:20;167.35;;;159.32;;
57057;SDS011;55017;52.848;6.748;2022-12-18T07:35:46;170.20;;;161.70;;
57057;SDS011;55017;52.848;6.748;2022-12-18T07:38:12;168.70;;;161.00;;
57057;SDS011;55017;52.848;6.748;2022-12-18T07:40:38;165.35;;;157.85;;
57057;SDS011;55017;52.848;6.748;2022-12-18T07:43:04;168.65;;;161.02;;
57057;SDS011;55017;52.848;6.748;2022-12-18T07:45:30;167.82;;;160.23;;
57057;SDS011;55017;52.848;6.748;2022-12-18T07:47:56;166.98;;;159.55;;
57057;SDS011;55017;52.848;6.748;2022-12-18T07:50:22;165.10;;;157.82;;
57057;SDS011;55017;52.848;6.748;2022-12-18T07:52:49;166.32;;;158.65;;
57057;SDS011;55017;52.848;6.748;2022-12-18T07:55:16;165.68;;;158.43;;
57057;SDS011;55017;52.848;6.748;2022-12-18T07:57:42;167.85;;;160.35;;
57057;SDS011;55017;52.848;6.748;2022-12-18T08:00:08;166.05;;;158.23;;
57057;SDS011;55017;52.848;6.748;2022-12-18T08:02:35;168.15;;;160.75;;
57057;SDS011;55017;52.848;6.748;2022-12-18T08:05:01;166.05;;;158.68;;
57057;SDS011;55017;52.848;6.748;2022-12-18T08:07:27;167.38;;;160.13;;
57057;SDS011;55017;52.848;6.748;2022-12-18T08:09:53;165.90;;;158.60;;
57057;SDS011;55017;52.848;6.748;2022-12-18T08:12:19;167.52;;;160.20;;
57057;SDS011;55017;52.848;6.748;2022-12-18T08:14:45;166.95;;;159.57;;
57057;SDS011;55017;52.848;6.748;2022-12-18T08:17:11;168.77;;;161.32;;
57057;SDS011;55017;52.848;6.748;2022-12-18T08:19:37;166.43;;;158.82;;
57057;SDS011;55017;52.848;6.748;2022-12-18T08:22:03;167.88;;;160.25;;
57057;SDS011;55017;52.848;6.748;2022-12-18T08:24:29;165.85;;;158.32;;
57057;SDS011;55017;52.848;6.748;2022-12-18T08:26:55;164.30;;;156.10;;
57057;SDS011;55017;52.848;6.748;2022-12-18T08:29:22;163.13;;;156.02;;
57057;SDS011;55017;52.848;6.748;2022-12-18T08:31:48;165.35;;;158.07;;
57057;SDS011;55017;52.848;6.748;2022-12-18T08:34:14;163.77;;;156.57;;
57057;SDS011;55017;52.848;6.748;2022-12-18T08:36:40;164.70;;;157.60;;
57057;SDS011;55017;52.848;6.748;2022-12-18T08:39:06;163.98;;;157.13;;
57057;SDS011;55017;52.848;6.748;2022-12-18T08:41:32;159.55;;;152.77;;
57057;SDS011;55017;52.848;6.748;2022-12-18T08:43:58;162.93;;;156.15;;
57057;SDS011;55017;52.848;6.748;2022-12-18T08:46:43;161.00;;;154.13;;
57057;SDS011;55017;52.848;6.748;2022-12-18T08:49:09;162.82;;;155.77;;
57057;SDS011;55017;52.848;6.748;2022-12-18T08:51:36;164.32;;;157.35;;
57057;SDS011;55017;52.848;6.748;2022-12-18T08:54:02;162.13;;;155.43;;
57057;SDS011;55017;52.848;6.748;2022-12-18T08:56:28;165.48;;;158.32;;
57057;SDS011;55017;52.848;6.748;2022-12-18T08:58:55;163.07;;;156.40;;
57057;SDS011;55017;52.848;6.748;2022-12-18T09:01:21;158.55;;;151.85;;
57057;SDS011;55017;52.848;6.748;2022-12-18T09:03:50;160.52;;;154.02;;
57057;SDS011;55017;52.848;6.748;2022-12-18T09:06:17;162.93;;;156.52;;
57057;SDS011;55017;52.848;6.748;2022-12-18T09:08:43;160.23;;;153.80;;
57057;SDS011;55017;52.848;6.748;2022-12-18T09:11:14;161.10;;;154.65;;
57057;SDS011;55017;52.848;6.748;2022-12-18T09:13:40;160.60;;;154.40;;
57057;SDS011;55017;52.848;6.748;2022-12-18T09:16:06;156.60;;;150.38;;
57057;SDS011;55017;52.848;6.748;2022-12-18T09:18:33;157.45;;;151.05;;
57057;SDS011;55017;52.848;6.748;2022-12-18T09:20:59;159.13;;;152.80;;
57057;SDS011;55017;52.848;6.748;2022-12-18T09:23:25;159.10;;;153.00;;
57057;SDS011;55017;52.848;6.748;2022-12-18T09:25:51;157.20;;;150.93;;
57057;SDS011;55017;52.848;6.748;2022-12-18T09:28:17;155.35;;;149.45;;
57057;SDS011;55017;52.848;6.748;2022-12-18T09:30:48;159.85;;;153.55;;
57057;SDS011;55017;52.848;6.748;2022-12-18T09:33:15;156.48;;;150.35;;
57057;SDS011;55017;52.848;6.748;2022-12-18T09:35:42;155.25;;;149.30;;
57057;SDS011;55017;52.848;6.748;2022-12-18T09:38:09;158.98;;;152.77;;
57057;SDS011;55017;52.848;6.748;2022-12-18T09:40:51;157.68;;;151.65;;
57057;SDS011;55017;52.848;6.748;2022-12-18T09:43:26;157.73;;;151.55;;
57057;SDS011;55017;52.848;6.748;2022-12-18T09:45:53;154.63;;;148.88;;
57057;SDS011;55017;52.848;6.748;2022-12-18T09:48:22;155.77;;;149.88;;
57057;SDS011;55017;52.848;6.748;2022-12-18T09:50:49;154.43;;;148.45;;
57057;SDS011;55017;52.848;6.748;2022-12-18T09:53:18;152.98;;;147.27;;
57057;SDS011;55017;52.848;6.748;2022-12-18T09:55:45;150.25;;;144.85;;
57057;SDS011;55017;52.848;6.748;2022-12-18T09:58:15;155.70;;;150.00;;
57057;SDS011;55017;52.848;6.748;2022-12-18T10:00:42;152.70;;;147.15;;
57057;SDS011;55017;52.848;6.748;2022-12-18T10:03:10;152.95;;;147.48;;
57057;SDS011;55017;52.848;6.748;2022-12-18T10:08:05;151.90;;;146.38;;
57057;SDS011;55017;52.848;6.748;2022-12-18T10:10:49;151.77;;;146.27;;
57057;SDS011;55017;52.848;6.748;2022-12-18T10:13:26;151.90;;;146.45;;
57057;SDS011;55017;52.848;6.748;2022-12-18T10:15:58;152.38;;;146.90;;
57057;SDS011;55017;52.848;6.748;2022-12-18T10:19:15;153.70;;;148.20;;
57057;SDS011;55017;52.848;6.748;2022-12-18T10:21:16;150.93;;;145.52;;
57057;SDS011;55017;52.848;6.748;2022-12-18T10:24:28;148.27;;;142.98;;
57057;SDS011;55017;52.848;6.748;2022-12-18T10:26:33;144.55;;;139.55;;
57057;SDS011;55017;52.848;6.748;2022-12-18T10:28:59;149.10;;;143.68;;
57057;SDS011;55017;52.848;6.748;2022-12-18T10:31:25;151.05;;;145.73;;
57057;SDS011;55017;52.848;6.748;2022-12-18T10:33:51;150.68;;;145.27;;
57057;SDS011;55017;52.848;6.748;2022-12-18T10:36:19;149.48;;;144.13;;
57057;SDS011;55017;52.848;6.748;2022-12-18T10:38:45;146.95;;;141.88;;
57057;SDS011;55017;52.848;6.748;2022-12-18T10:43:44;150.38;;;145.05;;
57057;SDS011;55017;52.848;6.748;2022-12-18T10:48:39;152.15;;;146.57;;
57057;SDS011;55017;52.848;6.748;2022-12-18T10:51:06;150.98;;;145.45;;
57057;SDS011;55017;52.848;6.748;2022-12-18T10:53:33;153.02;;;147.57;;
57057;SDS011;55017;52.848;6.748;2022-12-18T10:56:00;153.05;;;147.45;;
57057;SDS011;55017;52.848;6.748;2022-12-18T10:58:34;152.18;;;146.77;;
57057;SDS011;55017;52.848;6.748;2022-12-18T11:03:31;153.20;;;147.68;;
57057;SDS011;55017;52.848;6.748;2022-12-18T11:06:01;151.80;;;146.40;;
57057;SDS011;55017;52.848;6.748;2022-12-18T11:08:27;151.10;;;145.75;;
57057;SDS011;55017;52.848;6.748;2022-12-18T11:10:53;148.60;;;143.20;;
57057;SDS011;55017;52.848;6.748;2022-12-18T11:13:21;149.23;;;144.00;;
57057;SDS011;55017;52.848;6.748;2022-12-18T11:15:48;152.15;;;146.65;;
57057;SDS011;55017;52.848;6.748;2022-12-18T11:18:35;154.73;;;148.93;;
57057;SDS011;55017;52.848;6.748;2022-12-18T11:21:07;150.63;;;145.25;;
57057;SDS011;55017;52.848;6.748;2022-12-18T11:23:34;150.65;;;145.15;;
57057;SDS011;55017;52.848;6.748;2022-12-18T11:26:01;154.05;;;148.38;;
57057;SDS011;55017;52.848;6.748;2022-12-18T11:28:29;153.27;;;147.77;;
57057;SDS011;55017;52.848;6.748;2022-12-18T11:31:20;152.65;;;147.25;;
57057;SDS011;55017;52.848;6.748;2022-12-18T11:33:52;152.77;;;147.32;;
57057;SDS011;55017;52.848;6.748;2022-12-18T11:36:19;151.80;;;146.40;;
57057;SDS011;55017;52.848;6.748;2022-12-18T11:38:46;150.75;;;145.35;;
57057;SDS011;55017;52.848;6.748;2022-12-18T11:43:50;153.75;;;148.00;;
57057;SDS011;55017;52.848;6.748;2022-12-18T11:46:19;147.95;;;142.57;;
57057;SDS011;55017;52.848;6.748;2022-12-18T11:51:29;152.70;;;147.18;;
57057;SDS011;55017;52.848;6.748;2022-12-18T11:53:57;152.77;;;147.20;;
57057;SDS011;55017;52.848;6.748;2022-12-18T11:58:56;154.35;;;148.57;;
57057;SDS011;55017;52.848;6.748;2022-12-18T12:01:34;154.13;;;148.45;;
57057;SDS011;55017;52.848;6.748;2022-12-18T12:04:06;153.35;;;147.77;;
57057;SDS011;55017;52.848;6.748;2022-12-18T12:06:47;150.75;;;145.02;;
57057;SDS011;55017;52.848;6.748;2022-12-18T12:09:21;152.60;;;146.98;;
57057;SDS011;55017;52.848;6.748;2022-12-18T12:12:10;153.63;;;148.05;;
57057;SDS011;55017;52.848;6.748;2022-12-18T12:14:45;154.63;;;148.82;;
57057;SDS011;55017;52.848;6.748;2022-12-18T12:17:17;150.88;;;145.15;;
57057;SDS011;55017;52.848;6.748;2022-12-18T12:19:55;153.95;;;148.18;;
57057;SDS011;55017;52.848;6.748;2022-12-18T12:24:57;154.50;;;148.82;;
57057;SDS011;55017;52.848;6.748;2022-12-18T12:30:14;155.48;;;149.80;;
57057;SDS011;55017;52.848;6.748;2022-12-18T12:35:19;155.15;;;149.55;;
57057;SDS011;55017;52.848;6.748;2022-12-18T12:37:53;155.13;;;149.52;;
57057;SDS011;55017;52.848;6.748;2022-12-18T12:40:23;152.32;;;146.93;;
57057;SDS011;55017;52.848;6.748;2022-12-18T12:43:50;152.10;;;146.60;;
57057;SDS011;55017;52.848;6.748;2022-12-18T12:45:48;156.05;;;150.15;;
57057;SDS011;55017;52.848;6.748;2022-12-18T12:48:16;149.40;;;143.82;;
57057;SDS011;55017;52.848;6.748;2022-12-18T12:53:12;152.63;;;147.23;;
57057;SDS011;55017;52.848;6.748;2022-12-18T12:55:41;152.05;;;146.85;;
57057;SDS011;55017;52.848;6.748;2022-12-18T12:58:14;156.52;;;150.68;;
57057;SDS011;55017;52.848;6.748;2022-12-18T13:00:53;155.32;;;149.57;;
57057;SDS011;55017;52.848;6.748;2022-12-18T13:03:30;152.25;;;146.85;;
57057;SDS011;55017;52.848;6.748;2022-12-18T13:06:02;152.15;;;146.77;;
57057;SDS011;55017;52.848;6.748;2022-12-18T13:08:31;154.63;;;149.05;;
57057;SDS011;55017;52.848;6.748;2022-12-18T13:10:57;154.57;;;148.98;;
57057;SDS011;55017;52.848;6.748;2022-12-18T13:13:50;155.35;;;149.70;;
57057;SDS011;55017;52.848;6.748;2022-12-18T13:16:18;152.55;;;147.02;;
57057;SDS011;55017;52.848;6.748;2022-12-18T13:19:02;156.60;;;150.80;;
57057;SDS011;55017;52.848;6.748;2022-12-18T13:21:29;156.00;;;150.10;;
57057;SDS011;55017;52.848;6.748;2022-12-18T13:23:56;156.13;;;150.13;;
57057;SDS011;55017;52.848;6.748;2022-12-18T13:28:53;155.38;;;149.65;;
57057;SDS011;55017;52.848;6.748;2022-12-18T13:34:17;153.27;;;147.57;;
57057;SDS011;55017;52.848;6.748;2022-12-18T13:36:44;152.48;;;147.07;;
57057;SDS011;55017;52.848;6.748;2022-12-18T13:41:36;157.00;;;150.98;;
57057;SDS011;55017;52.848;6.748;2022-12-18T13:46:48;154.05;;;148.52;;
57057;SDS011;55017;52.848;6.748;2022-12-18T13:51:41;157.73;;;151.65;;
57057;SDS011;55017;52.848;6.748;2022-12-18T13:54:20;153.55;;;147.90;;
57057;SDS011;55017;52.848;6.748;2022-12-18T13:56:48;156.75;;;151.15;;
57057;SDS011;55017;52.848;6.748;2022-12-18T13:59:16;157.43;;;151.50;;
57057;SDS011;55017;52.848;6.748;2022-12-18T14:01:43;154.60;;;148.90;;
57057;SDS011;55017;52.848;6.748;2022-12-18T14:04:10;154.93;;;149.15;;
57057;SDS011;55017;52.848;6.748;2022-12-18T14:06:36;153.60;;;147.88;;
57057;SDS011;55017;52.848;6.748;2022-12-18T14:09:02;154.35;;;148.52;;
57057;SDS011;55017;52.848;6.748;2022-12-18T14:11:29;154.60;;;149.00;;
57057;SDS011;55017;52.848;6.748;2022-12-18T14:13:55;155.80;;;150.00;;
57057;SDS011;55017;52.848;6.748;2022-12-18T14:16:22;155.70;;;149.88;;
57057;SDS011;55017;52.848;6.748;2022-12-18T14:18:54;155.85;;;150.10;;
57057;SDS011;55017;52.848;6.748;2022-12-18T14:21:22;156.95;;;151.15;;
57057;SDS011;55017;52.848;6.748;2022-12-18T14:23:49;155.67;;;150.10;;
57057;SDS011;55017;52.848;6.748;2022-12-18T14:29:01;156.32;;;150.35;;
57057;SDS011;55017;52.848;6.748;2022-12-18T14:31:43;153.43;;;147.73;;
57057;SDS011;55017;52.848;6.748;2022-12-18T14:34:15;155.85;;;150.25;;
57057;SDS011;55017;52.848;6.748;2022-12-18T14:36:41;154.65;;;149.00;;
57057;SDS011;55017;52.848;6.748;2022-12-18T14:39:17;155.52;;;149.68;;
57057;SDS011;55017;52.848;6.748;2022-12-18T14:41:43;155.73;;;150.02;;
57057;SDS011;55017;52.848;6.748;2022-12-18T14:44:10;156.02;;;150.02;;
57057;SDS011;55017;52.848;6.748;2022-12-18T14:46:47;157.32;;;151.60;;
57057;SDS011;55017;52.848;6.748;2022-12-18T14:49:26;156.00;;;149.98;;
57057;SDS011;55017;52.848;6.748;2022-12-18T14:51:59;155.85;;;150.15;;
57057;SDS011;55017;52.848;6.748;2022-12-18T14:54:25;155.05;;;149.07;;
57057;SDS011;55017;52.848;6.748;2022-12-18T14:59:22;153.15;;;147.07;;
57057;SDS011;55017;52.848;6.748;2022-12-18T15:01:53;154.02;;;148.27;;
57057;SDS011;55017;52.848;6.748;2022-12-18T15:04:26;159.02;;;152.77;;
57057;SDS011;55017;52.848;6.748;2022-12-18T15:09:39;158.63;;;152.63;;
57057;SDS011;55017;52.848;6.748;2022-12-18T15:12:05;159.63;;;153.60;;
57057;SDS011;55017;52.848;6.748;2022-12-18T15:14:42;156.55;;;150.75;;